createdAt,value
2022-08-26T00:01:01.465Z,100176.03
2022-08-26T00:03:36.766Z,100179.19
2022-08-26T00:06:12.052Z,100171.47
2022-08-26T00:08:46.492Z,100178.09
2022-08-26T00:11:26.984Z,100179.53
2022-08-26T00:14:00.857Z,100185.25
2022-08-26T00:16:34.965Z,100179.94
2022-08-26T00:19:08.822Z,100182.97
2022-08-26T00:21:43.855Z,100177.66
2022-08-26T00:24:22.210Z,100181.56
2022-08-26T00:26:57.328Z,100188.13
2022-08-26T00:29:32.240Z,100182.97
2022-08-26T00:32:09.236Z,100188.56
2022-08-26T00:34:45.084Z,100182.38
2022-08-26T00:37:20.141Z,100176.41
2022-08-26T00:39:54.802Z,100174.66
2022-08-26T00:42:30.645Z,100173.09
2022-08-26T00:45:04.799Z,100173.41
2022-08-26T00:47:48.591Z,100176.25
2022-08-26T00:50:27.539Z,100179.13
2022-08-26T00:53:06.614Z,100180.25
2022-08-26T00:55:42.653Z,100176.84
2022-08-26T00:58:16.761Z,100188.69
2022-08-26T01:00:54.311Z,100186.97
2022-08-26T01:03:30.209Z,100188.13
2022-08-26T01:06:12.510Z,100190.09
2022-08-26T01:08:48.232Z,100186.97
2022-08-26T01:11:22.495Z,100180.84
2022-08-26T01:13:59.025Z,100180.13
2022-08-26T01:16:33.502Z,100181.25
2022-08-26T01:19:17.224Z,100176.94
2022-08-26T01:21:56.077Z,100178.25
2022-08-26T01:24:33.049Z,100170.53
2022-08-26T01:27:11.124Z,100172.69
2022-08-26T01:29:46.622Z,100176.53
2022-08-26T01:32:23.550Z,100173.94
2022-08-26T01:34:57.404Z,100171.94
2022-08-26T01:37:36.953Z,100172.09
2022-08-26T01:40:19.996Z,100177.81
2022-08-26T01:42:54.557Z,100176.94
2022-08-26T01:45:31.521Z,100176.25
2022-08-26T01:48:11.745Z,100177.22
2022-08-26T01:50:46.851Z,100177.22
2022-08-26T01:53:22.803Z,100178.38
2022-08-26T01:56:01.556Z,100178.53
2022-08-26T01:58:43.005Z,100174.94
2022-08-26T02:01:17.168Z,100170.66
2022-08-26T02:04:00.301Z,100173.50
2022-08-26T02:06:34.232Z,100167.22
2022-08-26T02:09:08.417Z,100174.63
2022-08-26T02:11:43.580Z,100165.78
2022-08-26T02:14:21.208Z,100163.91
2022-08-26T02:16:55.361Z,100174.78
2022-08-26T02:19:33.288Z,100166.78
2022-08-26T02:22:14.036Z,100171.34
2022-08-26T02:24:51.292Z,100170.50
2022-08-26T02:27:32.139Z,100170.50
2022-08-26T02:30:11.447Z,100167.78
2022-08-26T02:32:45.477Z,100168.78
2022-08-26T02:35:20.611Z,100164.34
2022-08-26T02:37:54.874Z,100163.63
2022-08-26T02:40:31.383Z,100163.78
2022-08-26T02:43:08.645Z,100168.47
2022-08-26T02:45:43.286Z,100168.59
2022-08-26T02:48:20.082Z,100162.16
2022-08-26T02:50:53.700Z,100165.88
2022-08-26T02:53:27.385Z,100160.59
2022-08-26T02:56:01.507Z,100159.75
2022-08-26T02:58:36.735Z,100158.16
2022-08-26T03:01:20.021Z,100162.88
2022-08-26T03:03:55.402Z,100157.72
2022-08-26T03:06:29.404Z,100159.84
2022-08-26T03:09:03.143Z,100151.13
2022-08-26T03:11:37.140Z,100155.13
2022-08-26T03:14:12.147Z,100156.25
2022-08-26T03:16:48.480Z,100158.25
2022-08-26T03:19:23.754Z,100156.66
2022-08-26T03:21:57.727Z,100157.66
2022-08-26T03:24:31.996Z,100153.38
2022-08-26T03:27:07.353Z,100154.50
2022-08-26T03:30:00.417Z,100152.94
2022-08-26T03:32:34.902Z,100162.19
2022-08-26T03:35:08.906Z,100158.75
2022-08-26T03:37:42.613Z,100159.88
2022-08-26T03:40:16.455Z,100159.03
2022-08-26T03:42:54.483Z,100153.88
2022-08-26T03:45:29.870Z,100150.47
2022-08-26T03:48:03.835Z,100155.00
2022-08-26T03:50:37.643Z,100144.16
2022-08-26T03:53:12.908Z,100153.19
2022-08-26T03:55:46.893Z,100143.31
2022-08-26T03:58:25.711Z,100145.44
2022-08-26T04:01:01.908Z,100138.28
2022-08-26T04:03:53.080Z,100150.00
2022-08-26T04:06:30.695Z,100149.13
2022-08-26T04:09:07.676Z,100145.59
2022-08-26T04:11:42.226Z,100140.88
2022-08-26T04:14:20.263Z,100143.59
2022-08-26T04:16:56.597Z,100144.44
2022-08-26T04:19:31.366Z,100141.44
2022-08-26T04:22:05.307Z,100137.75
2022-08-26T04:24:40.227Z,100136.59
2022-08-26T04:27:14.267Z,100132.78
2022-08-26T04:29:49.177Z,100132.50
2022-08-26T04:32:25.656Z,100132.94
2022-08-26T04:34:59.329Z,100135.09
2022-08-26T04:37:35.533Z,100138.13
2022-08-26T04:40:10.353Z,100135.72
2022-08-26T04:42:44.529Z,100137.84
2022-08-26T04:45:18.281Z,100139.75
2022-08-26T04:47:57.956Z,100140.06
2022-08-26T04:50:32.703Z,100143.38
2022-08-26T04:53:06.617Z,100149.38
2022-08-26T04:55:44.201Z,100146.09
2022-08-26T04:58:23.062Z,100146.53
2022-08-26T05:00:58.659Z,100154.38
2022-08-26T05:03:33.909Z,100153.97
2022-08-26T05:06:08.937Z,100144.09
2022-08-26T05:08:43.555Z,100159.53
2022-08-26T05:11:17.249Z,100155.81
2022-08-26T05:13:52.064Z,100146.53
2022-08-26T05:16:25.927Z,100161.78
2022-08-26T05:19:01.686Z,100155.53
2022-08-26T05:21:35.556Z,100151.78
2022-08-26T05:24:11.936Z,100153.47
2022-08-26T05:26:48.105Z,100157.72
2022-08-26T05:29:21.820Z,100151.94
2022-08-26T05:31:56.481Z,100165.06
2022-08-26T05:34:31.523Z,100149.28
2022-08-26T05:37:06.919Z,100153.38
2022-08-26T05:39:43.394Z,100159.72
2022-08-26T05:42:17.228Z,100156.31
2022-08-26T05:44:55.594Z,100153.75
2022-08-26T05:47:29.936Z,100158.53
2022-08-26T05:50:05.972Z,100162.25
2022-08-26T05:52:39.622Z,100170.25
2022-08-26T05:55:13.350Z,100163.53
2022-08-26T05:57:47.722Z,100160.03
2022-08-26T06:00:22.036Z,100162.09
2022-08-26T06:02:55.929Z,100161.47
2022-08-26T06:05:34.224Z,100156.94
2022-08-26T06:08:15.039Z,100160.44
2022-08-26T06:10:49.979Z,100160.66
2022-08-26T06:13:27.020Z,100157.81
2022-08-26T06:16:07.174Z,100151.38
2022-08-26T06:18:43.508Z,100154.13
2022-08-26T06:21:20.814Z,100158.94
2022-08-26T06:24:12.975Z,100151.78
2022-08-26T06:26:50.724Z,100158.16
2022-08-26T06:29:26.907Z,100162.63
2022-08-26T06:32:02.853Z,100163.50
2022-08-26T06:34:36.408Z,100168.81
2022-08-26T06:37:14.278Z,100170.03
2022-08-26T06:39:48.095Z,100168.34
2022-08-26T06:42:24.808Z,100171.13
2022-08-26T06:44:58.386Z,100169.75
2022-08-26T06:47:32.691Z,100170.41
2022-08-26T06:50:08.543Z,100169.69
2022-08-26T06:52:44.332Z,100164.66
2022-08-26T06:55:18.252Z,100161.50
2022-08-26T06:57:52.003Z,100163.13
2022-08-26T07:00:27.187Z,100157.78
2022-08-26T07:03:00.887Z,100163.13
2022-08-26T07:05:36.409Z,100160.66
2022-08-26T07:08:11.417Z,100160.41
2022-08-26T07:10:45.091Z,100167.91
2022-08-26T07:13:18.679Z,100163.06
2022-08-26T07:16:05.428Z,100162.78
2022-08-26T07:18:40.824Z,100159.22
2022-08-26T07:21:16.837Z,100153.38
2022-08-26T07:23:58.734Z,100153.81
2022-08-26T07:26:34.830Z,100149.59
2022-08-26T07:29:12.207Z,100163.84
2022-08-26T07:31:47.911Z,100157.13
2022-08-26T07:34:23.114Z,100159.13
2022-08-26T07:36:57.525Z,100159.78
2022-08-26T07:39:34.146Z,100161.13
2022-08-26T07:42:09.613Z,100165.03
2022-08-26T07:44:44.068Z,100166.16
2022-08-26T07:47:25.586Z,100161.50
2022-08-26T07:50:00.290Z,100170.78
2022-08-26T07:52:34.027Z,100157.81
2022-08-26T07:55:11.071Z,100157.72
2022-08-26T07:57:45.304Z,100152.88
2022-08-26T08:00:19.546Z,100160.34
2022-08-26T08:02:53.231Z,100152.22
2022-08-26T08:05:33.515Z,100154.53
2022-08-26T08:08:19.741Z,100150.13
2022-08-26T08:11:03.784Z,100152.13
2022-08-26T08:13:39.879Z,100154.97
2022-08-26T08:16:13.719Z,100152.38
2022-08-26T08:18:47.333Z,100152.50
2022-08-26T08:21:24.193Z,100159.75
2022-08-26T08:23:58.685Z,100159.09
2022-08-26T08:26:35.414Z,100149.72
2022-08-26T08:29:09.777Z,100154.81
2022-08-26T08:31:58.965Z,100153.78
2022-08-26T08:34:33.850Z,100150.78
2022-08-26T08:37:10.669Z,100148.91
2022-08-26T08:39:44.661Z,100149.03
2022-08-26T08:42:46.052Z,100139.69
2022-08-26T08:45:26.819Z,100145.97
2022-08-26T08:48:04.038Z,100147.47
2022-08-26T08:50:44.462Z,100145.50
2022-08-26T08:53:22.801Z,100143.31
2022-08-26T08:56:06.301Z,100136.72
2022-08-26T08:58:53.618Z,100139.50
2022-08-26T09:01:40.806Z,100141.41
2022-08-26T09:04:46.828Z,100138.97
2022-08-26T09:07:25.271Z,100147.44
2022-08-26T09:10:02.577Z,100145.16
2022-08-26T09:12:36.402Z,100143.28
2022-08-26T09:15:18.212Z,100145.81
2022-08-26T09:18:05.654Z,100142.75
2022-08-26T09:20:51.024Z,100134.31
2022-08-26T09:23:25.314Z,100138.19
2022-08-26T09:26:01.440Z,100143.28
2022-08-26T09:28:34.982Z,100137.75
2022-08-26T09:31:16.267Z,100131.50
2022-08-26T09:33:50.336Z,100132.88
2022-08-26T09:36:39.183Z,100122.97
2022-08-26T09:39:34.006Z,100135.16
2022-08-26T09:42:12.931Z,100131.13
2022-08-26T09:44:56.721Z,100129.19
2022-08-26T09:47:34.138Z,100126.47
2022-08-26T09:50:20.034Z,100125.75
2022-08-26T09:53:09.709Z,100126.06
2022-08-26T09:55:48.263Z,100124.97
2022-08-26T09:58:37.811Z,100116.44
2022-08-26T10:01:17.813Z,100118.16
2022-08-26T10:04:04.006Z,100111.47
2022-08-26T10:06:47.824Z,100120.22
2022-08-26T10:09:22.845Z,100114.19
2022-08-26T10:12:02.108Z,100112.47
2022-08-26T10:14:49.356Z,100112.78
2022-08-26T10:17:30.736Z,100104.94
2022-08-26T10:20:22.625Z,100100.69
2022-08-26T10:23:02.730Z,100094.44
2022-08-26T10:25:46.884Z,100092.69
2022-08-26T10:28:29.142Z,100088.91
2022-08-26T10:31:14.774Z,100077.41
2022-08-26T10:33:51.828Z,100071.19
2022-08-26T10:37:10.639Z,100069.16
2022-08-26T10:39:57.177Z,100072.03
2022-08-26T10:42:37.595Z,100071.34
2022-08-26T10:45:16.783Z,100065.53
2022-08-26T10:47:55.907Z,100064.28
2022-08-26T10:50:37.415Z,100065.25
2022-08-26T10:53:18.490Z,100067.94
2022-08-26T10:56:05.773Z,100070.38
2022-08-26T10:59:04.221Z,100064.09
2022-08-26T11:01:50.802Z,100059.34
2022-08-26T11:04:43.358Z,100069.94
2022-08-26T11:07:42.854Z,100065.94
2022-08-26T11:11:05.262Z,100054.97
2022-08-26T11:14:04.308Z,100055.59
2022-08-26T11:16:43.550Z,100056.25
2022-08-26T11:20:00.812Z,100054.41
2022-08-26T11:22:47.842Z,100060.09
2022-08-26T11:25:29.740Z,100060.94
2022-08-26T11:28:37.222Z,100049.44
2022-08-26T11:31:14.207Z,100054.03
2022-08-26T11:33:54.123Z,100040.78
2022-08-26T11:36:45.568Z,100046.69
2022-08-26T11:39:25.615Z,100036.25
2022-08-26T11:42:01.470Z,100036.31
2022-08-26T11:44:49.055Z,100031.50
2022-08-26T11:47:30.041Z,100027.38
2022-08-26T11:50:16.656Z,100017.22
2022-08-26T11:52:54.963Z,100020.97
2022-08-26T11:55:30.916Z,100013.91
2022-08-26T11:58:07.771Z,100016.75
2022-08-26T12:00:55.427Z,100005.22
2022-08-26T12:03:37.968Z,100009.47
2022-08-26T12:06:18.141Z,100013.25
2022-08-26T12:08:53.907Z,100008.72
2022-08-26T12:11:30.617Z,100001.31
2022-08-26T12:14:07.238Z,100002.22
2022-08-26T12:16:42.541Z,99997.16
2022-08-26T12:19:28.309Z,99999.84
2022-08-26T12:22:21.483Z,99995.72
2022-08-26T12:24:58.627Z,99996.56
2022-08-26T12:27:34.287Z,100002.69
2022-08-26T12:30:14.141Z,99993.31
2022-08-26T12:32:57.642Z,99992.47
2022-08-26T12:35:34.932Z,99987.09
2022-08-26T12:38:12.460Z,99985.69
2022-08-26T12:40:49.237Z,99983.81
2022-08-26T12:43:44.075Z,99977.72
2022-08-26T12:46:25.708Z,99971.41
2022-08-26T12:49:03.148Z,99978.28
2022-08-26T12:51:42.118Z,99964.91
2022-08-26T12:54:17.867Z,99964.66
2022-08-26T12:56:51.980Z,99968.09
2022-08-26T12:59:27.371Z,99962.03
2022-08-26T13:02:01.005Z,99967.59
2022-08-26T13:04:39.861Z,99951.69
2022-08-26T13:07:24.845Z,99954.47
2022-08-26T13:10:01.068Z,99957.88
2022-08-26T13:12:37.453Z,99944.25
2022-08-26T13:15:11.424Z,99949.47
2022-08-26T13:17:45.014Z,99943.72
2022-08-26T13:20:20.057Z,99948.81
2022-08-26T13:22:58.875Z,99939.44
2022-08-26T13:25:33.036Z,99944.16
2022-08-26T13:28:06.625Z,99943.44
2022-08-26T13:30:40.917Z,99935.25
2022-08-26T13:33:17.010Z,99945.28
2022-08-26T13:35:54.887Z,99934.22
2022-08-26T13:38:33.815Z,99931.81
2022-08-26T13:41:07.888Z,99931.31
2022-08-26T13:43:41.640Z,99935.78
2022-08-26T13:46:15.499Z,99927.22
2022-08-26T13:48:49.267Z,99937.34
2022-08-26T13:51:24.809Z,99921.69
2022-08-26T13:53:59.193Z,99922.66
2022-08-26T13:56:33.619Z,99920.19
2022-08-26T13:59:07.497Z,99927.41
2022-08-26T14:01:41.402Z,99913.50
2022-08-26T14:04:15.044Z,99922.06
2022-08-26T14:07:13.301Z,99904.28
2022-08-26T14:09:46.791Z,99914.88
2022-08-26T14:12:20.485Z,99917.34
2022-08-26T14:14:54.070Z,99912.84
2022-08-26T14:17:28.019Z,99909.16
2022-08-26T14:20:07.753Z,99902.72
2022-08-26T14:23:03.424Z,99901.19
2022-08-26T14:25:39.312Z,99901.09
2022-08-26T14:28:13.167Z,99902.97
2022-08-26T14:30:50.920Z,99906.47
2022-08-26T14:33:33.923Z,99907.84
2022-08-26T14:36:25.666Z,99895.22
2022-08-26T14:39:03.263Z,99893.22
2022-08-26T14:41:42.467Z,99896.69
2022-08-26T14:44:18.070Z,99894.63
2022-08-26T14:46:54.739Z,99893.47
2022-08-26T14:49:31.259Z,99893.97
2022-08-26T14:52:05.396Z,99885.94
2022-08-26T14:54:39.371Z,99883.00
2022-08-26T14:57:15.271Z,99876.03
2022-08-26T14:59:50.826Z,99878.53
2022-08-26T15:02:32.871Z,99880.69
2022-08-26T15:05:08.785Z,99867.97
2022-08-26T15:07:43.088Z,99875.00
2022-08-26T15:10:19.055Z,99870.97
2022-08-26T15:12:56.438Z,99872.47
2022-08-26T15:15:31.073Z,99873.97
2022-08-26T15:18:04.694Z,99873.81
2022-08-26T15:20:38.365Z,99868.94
2022-08-26T15:23:12.329Z,99867.50
2022-08-26T15:25:48.334Z,99868.56
2022-08-26T15:28:22.369Z,99864.97
2022-08-26T15:30:56.031Z,99864.31
2022-08-26T15:33:29.954Z,99864.53
2022-08-26T15:36:05.055Z,99862.66
2022-08-26T15:38:41.425Z,99854.38
2022-08-26T15:41:16.583Z,99847.97
2022-08-26T15:43:51.626Z,99852.44
2022-08-26T15:46:25.432Z,99850.50
2022-08-26T15:48:59.190Z,99846.09
2022-08-26T15:51:35.620Z,99843.31
2022-08-26T15:54:22.401Z,99844.16
2022-08-26T15:56:59.480Z,99842.44
2022-08-26T15:59:38.126Z,99845.44
2022-08-26T16:02:11.998Z,99845.66
2022-08-26T16:04:45.719Z,99839.75
2022-08-26T16:07:19.571Z,99837.41
2022-08-26T16:09:54.752Z,99834.50
2022-08-26T16:12:30.379Z,99837.06
2022-08-26T16:15:04.133Z,99839.66
2022-08-26T16:17:37.853Z,99842.00
2022-08-26T16:20:11.655Z,99837.09
2022-08-26T16:22:45.464Z,99842.22
2022-08-26T16:25:19.256Z,99836.72
2022-08-26T16:27:54.897Z,99832.09
2022-08-26T16:30:29.054Z,99834.66
2022-08-26T16:33:02.895Z,99831.94
2022-08-26T16:35:36.792Z,99833.63
2022-08-26T16:38:10.979Z,99825.41
2022-08-26T16:40:45.068Z,99827.09
2022-08-26T16:43:20.248Z,99823.31
2022-08-26T16:45:53.976Z,99824.97
2022-08-26T16:48:27.756Z,99830.31
2022-08-26T16:51:01.456Z,99831.78
2022-08-26T16:53:35.063Z,99829.91
2022-08-26T16:56:12.978Z,99838.16
2022-08-26T16:58:50.856Z,99835.44
2022-08-26T17:01:25.740Z,99832.28
2022-08-26T17:03:59.660Z,99840.56
2022-08-26T17:06:34.205Z,99838.00
2022-08-26T17:09:07.895Z,99846.22
2022-08-26T17:11:41.579Z,99838.19
2022-08-26T17:14:16.635Z,99831.84
2022-08-26T17:16:53.614Z,99842.81
2022-08-26T17:19:27.395Z,99840.50
2022-08-26T17:22:01.045Z,99832.66
2022-08-26T17:24:39.776Z,99837.31
2022-08-26T17:27:13.571Z,99839.16
2022-08-26T17:29:48.695Z,99834.03
2022-08-26T17:32:22.292Z,99835.09
2022-08-26T17:34:59.183Z,99836.97
2022-08-26T17:37:32.932Z,99839.88
2022-08-26T17:40:09.615Z,99836.69
2022-08-26T17:42:43.863Z,99846.16
2022-08-26T17:47:56.151Z,99845.16
2022-08-26T17:50:29.872Z,99846.84
2022-08-26T17:53:03.569Z,99846.16
2022-08-26T17:55:37.247Z,99843.56
2022-08-26T17:58:11.591Z,99844.13
2022-08-26T18:00:52.655Z,99841.53
2022-08-26T18:03:26.389Z,99844.41
2022-08-26T18:06:17.336Z,99845.59
2022-08-26T18:08:51.527Z,99853.34
2022-08-26T18:11:27.437Z,99845.22
2022-08-26T18:14:01.593Z,99853.41
2022-08-26T18:16:38.536Z,99845.13
2022-08-26T18:19:13.046Z,99854.13
2022-08-26T18:21:46.856Z,99855.09
2022-08-26T18:24:20.659Z,99857.75
2022-08-26T18:26:54.289Z,99855.97
2022-08-26T18:29:29.508Z,99848.53
2022-08-26T18:32:05.119Z,99863.25
2022-08-26T18:34:40.944Z,99853.22
2022-08-26T18:37:14.498Z,99856.56
2022-08-26T18:39:48.819Z,99863.44
2022-08-26T18:42:23.747Z,99861.97
2022-08-26T18:44:57.481Z,99860.63
2022-08-26T18:47:32.893Z,99866.50
2022-08-26T18:50:08.082Z,99858.66
2022-08-26T18:52:42.021Z,99858.19
2022-08-26T18:55:15.649Z,99861.50
2022-08-26T18:57:49.660Z,99851.94
2022-08-26T19:00:23.622Z,99851.47
2022-08-26T19:02:58.753Z,99853.94
2022-08-26T19:05:34.318Z,99858.97
2022-08-26T19:08:08.049Z,99850.66
2022-08-26T19:10:41.763Z,99852.25
2022-08-26T19:13:15.856Z,99850.06
2022-08-26T19:15:49.569Z,99855.09
2022-08-26T19:18:24.678Z,99858.38
2022-08-26T19:20:58.352Z,99851.75
2022-08-26T19:23:32.612Z,99852.31
2022-08-26T19:26:08.364Z,99847.63
2022-08-26T19:28:42.365Z,99849.03
2022-08-26T19:31:16.190Z,99858.13
2022-08-26T19:33:51.328Z,99857.84
2022-08-26T19:36:26.274Z,99855.84
2022-08-26T19:39:00.401Z,99855.56
2022-08-26T19:41:38.023Z,99860.75
2022-08-26T19:44:34.194Z,99854.78
2022-08-26T19:47:15.643Z,99859.97
2022-08-26T19:49:54.402Z,99868.72
2022-08-26T19:52:29.916Z,99862.94
2022-08-26T19:55:04.124Z,99867.28
2022-08-26T19:57:39.543Z,99862.19
2022-08-26T20:00:16.388Z,99865.47
2022-08-26T20:02:54.002Z,99874.03
2022-08-26T20:05:29.338Z,99869.94
2022-08-26T20:08:02.921Z,99861.25
2022-08-26T20:10:36.595Z,99860.75
2022-08-26T20:13:10.295Z,99861.13
2022-08-26T20:15:44.088Z,99864.41
2022-08-26T20:18:37.675Z,99868.69
2022-08-26T20:21:27.723Z,99866.25
2022-08-26T20:24:03.948Z,99875.44
2022-08-26T20:26:39.454Z,99867.97
2022-08-26T20:29:15.485Z,99871.72
2022-08-26T20:31:50.037Z,99876.69
2022-08-26T20:34:24.256Z,99877.22
2022-08-26T20:37:00.756Z,99877.41
2022-08-26T20:39:34.474Z,99884.25
2022-08-26T20:42:19.896Z,99893.69
2022-08-26T20:44:56.536Z,99893.69
2022-08-26T20:47:30.319Z,99897.78
2022-08-26T20:50:04.011Z,99890.97
2022-08-26T20:52:38.941Z,99891.53
2022-08-26T20:55:13.160Z,99892.88
2022-08-26T20:57:46.822Z,99897.81
2022-08-26T21:00:24.553Z,99902.97
2022-08-26T21:03:02.542Z,99897.88
2022-08-26T21:05:36.991Z,99902.31
2022-08-26T21:08:12.293Z,99899.44
2022-08-26T21:10:46.111Z,99898.25
2022-08-26T21:13:20.448Z,99894.34
2022-08-26T21:15:57.208Z,99895.88
2022-08-26T21:18:31.114Z,99893.66
2022-08-26T21:21:05.668Z,99903.41
2022-08-26T21:23:40.984Z,99902.06
2022-08-26T21:26:17.362Z,99901.72
2022-08-26T21:28:51.253Z,99904.78
2022-08-26T21:31:26.432Z,99896.94
2022-08-26T21:34:00.346Z,99902.59
2022-08-26T21:36:33.973Z,99908.22
2022-08-26T21:39:11.729Z,99902.91
2022-08-26T21:41:47.352Z,99899.50
2022-08-26T21:44:21.054Z,99896.09
2022-08-26T21:46:55.862Z,99896.09
2022-08-26T21:49:29.678Z,99901.88
2022-08-26T21:52:04.730Z,99893.00
2022-08-26T21:54:40.288Z,99893.38
2022-08-26T21:57:23.009Z,99892.66
2022-08-26T21:59:57.032Z,99890.97
2022-08-26T22:02:30.599Z,99885.69
2022-08-26T22:05:04.249Z,99889.59
2022-08-26T22:07:37.850Z,99887.03
2022-08-26T22:10:12.974Z,99881.75
2022-08-26T22:12:46.501Z,99889.09
2022-08-26T22:15:23.125Z,99890.94
2022-08-26T22:17:56.641Z,99899.31
2022-08-26T22:20:30.284Z,99889.44
2022-08-26T22:23:03.832Z,99887.72
2022-08-26T22:25:40.853Z,99888.06
2022-08-26T22:28:14.459Z,99880.38
2022-08-26T22:30:48.828Z,99890.78
2022-08-26T22:33:23.421Z,99892.00
2022-08-26T22:35:56.969Z,99884.31
2022-08-26T22:38:30.530Z,99879.22
2022-08-26T22:41:08.517Z,99891.28
2022-08-26T22:43:42.394Z,99885.31
2022-08-26T22:46:18.650Z,99884.81
2022-08-26T22:48:53.842Z,99883.28
2022-08-26T22:51:28.086Z,99881.56
2022-08-26T22:54:01.983Z,99881.88
2022-08-26T22:56:38.002Z,99876.59
2022-08-26T22:59:12.653Z,99880.53
2022-08-26T23:01:47.008Z,99876.25
2022-08-26T23:04:21.043Z,99870.28
2022-08-26T23:06:54.636Z,99876.06
2022-08-26T23:09:28.344Z,99868.38
2022-08-26T23:12:03.684Z,99860.38
2022-08-26T23:14:37.563Z,99863.41
2022-08-26T23:17:12.344Z,99853.88
2022-08-26T23:19:46.027Z,99854.22
2022-08-26T23:22:19.612Z,99857.94
2022-08-26T23:24:53.295Z,99852.84
2022-08-26T23:27:30.445Z,99851.47
2022-08-26T23:30:04.085Z,99853.50
2022-08-26T23:32:37.809Z,99852.13
2022-08-26T23:35:11.241Z,99842.56
2022-08-26T23:37:50.223Z,99834.72
2022-08-26T23:40:27.075Z,99840.69
2022-08-26T23:43:04.669Z,99833.16
2022-08-26T23:45:38.592Z,99833.47
2022-08-26T23:48:12.231Z,99835.69
2022-08-26T23:51:03.071Z,99833.63
2022-08-26T23:53:36.612Z,99836.00
2022-08-26T23:56:16.173Z,99827.44
2022-08-26T23:58:51.517Z,99826.22
